Impacts TAF Board INFO
FOR SITUATIONAL AWARENESS. NOT TO BE USED FOR FLIGHT PLANNING PURPOSES.
IDs:

KDTW - Detroit Metro/Wayne, MI, US

Issued at 0309 UTC 20 Aug 2018
Updated at 0330 UTC 20 Aug 2018
Potential Impact None Slight Moderate High
Time0253Z 20/04Z 20/05Z 20/06Z 20/07Z 20/08Z 20/09Z 20/10Z 20/11Z 20/12Z 20/13Z 20/14Z 20/15Z 20/16Z>>
Type OBS PRVL PRVL PRVL PRVL PRVL PRVL PRVL
  [TEMP]  
PRVL
  [TEMP]  
PRVL
  [TEMP]  
PRVL PRVL PRVL PRVL
VIS 8 >6 >6 >6 >6 >6 >6 >6
  [5]  
>6
  [5]  
>6
  [5]  
>6 >6 >6 >6
CIG 250 250 250 250 250 250 250 250
  [250]  
250
  [250]  
250
  [250]  
250 250 250 250
Cover BKN BKN BKN BKN BKN BKN BKN BKN
  [BKN]  
BKN
  [BKN]  
BKN
  [BKN]  
BKN BKN BKN BKN
FltCat VFR VFR VFR VFR VFR VFR VFR VFR
  [MVFR]  
VFR
  [MVFR]  
VFR
  [MVFR]  
VFR VFR VFR VFR
WX -- -- -- -- -- -- -- --
  [BR]  
--
  [BR]  
--
  [BR]  
-- -- -- --
WDir 100 120 120 120 120 120 120 120
[120]
120
[120]
120
[120]
120 120 120 120
WSpd 3 5 5 5 5 5 5 5
  [5]  
5
  [5]  
5
  [5]  
5 7 7 7
WGst -- -- -- -- -- -- -- --
  [--]  
--
  [--]  
--
  [--]  
-- -- -- --

Raw TAF
KDTW 200309Z 2003/2106 12005KT P6SM BKN250
  TEMPO 2010/2013 5SM BR
  FM201400 12007KT P6SM SCT040 BKN250
  FM210100 09005KT P6SM VCSH BKN040 OVC080


Raw METAR
KDTW 200253Z 10003KT 8SM BKN250 22/17 A3005 RMK AO2 SLP172 60000 T02170167 53008
KDTW 200153Z 09004KT 9SM BKN250 22/17 A3004 RMK AO2 SLP169 T02220167
KDTW 200053Z 17004KT 9SM BKN250 23/17 A3002 RMK AO2 SLP163 T02280172

METAR Board
Radar Display
Forecast Discussion

FOR SITUATIONAL AWARENESS. NOT TO BE USED FOR FLIGHT PLANNING PURPOSES.